Aviation Digital Data Service (ADDS)

Output produced by METARs form (0129 UTC 30 September 2016)
found at http://aviationweather.gov/adds/metars/
 
KDET 292330Z 3000/3024 04013KT 3SM -SHRA BR OVC013 
     TEMPO 3000/3004 1SM RA OVC008 
     FM300400 04010KT 3SM -SHRA OVC008 
     FM301600 06013G20KT 6SM -SHRA BKN015 OVC025 
     PROB30 3017/3021 2SM RA OVC008 
     FM302100 06013KT 6SM -SHRA OVC008